sensor_id;sensor_type;location;lat;lon;timestamp;pressure;altitude;pressure_sealevel;temperature;humidity
68230;BME280;55048;52.220;5.160;2022-10-26T00:02:25;101332.44;;;13.23;79.91
68230;BME280;55048;52.220;5.160;2022-10-26T00:04:50;101333.22;;;13.24;79.51
68230;BME280;55048;52.220;5.160;2022-10-26T00:07:16;101329.75;;;13.23;79.70
68230;BME280;55048;52.220;5.160;2022-10-26T00:09:41;101327.91;;;13.24;79.74
68230;BME280;55048;52.220;5.160;2022-10-26T00:12:07;101321.16;;;13.21;79.85
68230;BME280;55048;52.220;5.160;2022-10-26T00:14:32;101323.59;;;13.23;79.83
68230;BME280;55048;52.220;5.160;2022-10-26T00:16:58;101320.13;;;13.22;79.70
68230;BME280;55048;52.220;5.160;2022-10-26T00:19:23;101315.81;;;13.21;79.63
68230;BME280;55048;52.220;5.160;2022-10-26T00:21:49;101309.66;;;13.21;79.79
68230;BME280;55048;52.220;5.160;2022-10-26T00:24:15;101309.66;;;13.21;79.69
68230;BME280;55048;52.220;5.160;2022-10-26T00:26:40;101298.31;;;13.14;79.74
68230;BME280;55048;52.220;5.160;2022-10-26T00:29:06;101310.16;;;13.18;79.98
68230;BME280;55048;52.220;5.160;2022-10-26T00:31:32;101305.59;;;13.18;79.93
68230;BME280;55048;52.220;5.160;2022-10-26T00:33:58;101304.53;;;13.19;79.93
68230;BME280;55048;52.220;5.160;2022-10-26T00:36:25;101302.13;;;13.18;79.81
68230;BME280;55048;52.220;5.160;2022-10-26T00:38:52;101295.44;;;13.15;80.15
68230;BME280;55048;52.220;5.160;2022-10-26T00:41:23;101292.75;;;13.15;80.22
68230;BME280;55048;52.220;5.160;2022-10-26T00:43:50;101293.56;;;13.16;80.33
68230;BME280;55048;52.220;5.160;2022-10-26T00:46:27;101288.44;;;13.14;80.00
68230;BME280;55048;52.220;5.160;2022-10-26T00:48:57;101289.03;;;13.16;80.14
68230;BME280;55048;52.220;5.160;2022-10-26T00:51:31;101269.44;;;13.11;80.28
68230;BME280;55048;52.220;5.160;2022-10-26T00:53:59;101286.34;;;13.16;80.34
68230;BME280;55048;52.220;5.160;2022-10-26T00:56:27;101288.78;;;13.18;80.32
68230;BME280;55048;52.220;5.160;2022-10-26T00:58:54;101281.56;;;13.18;80.10
68230;BME280;55048;52.220;5.160;2022-10-26T01:01:22;101286.91;;;13.18;80.21
68230;BME280;55048;52.220;5.160;2022-10-26T01:03:48;101239.59;;;12.97;80.25
68230;BME280;55048;52.220;5.160;2022-10-26T01:06:13;101264.91;;;13.11;80.21
68230;BME280;55048;52.220;5.160;2022-10-26T01:08:41;101256.56;;;13.08;80.25
68230;BME280;55048;52.220;5.160;2022-10-26T01:11:08;101234.16;;;12.92;80.31
68230;BME280;55048;52.220;5.160;2022-10-26T01:13:36;101272.41;;;13.14;80.32
68230;BME280;55048;52.220;5.160;2022-10-26T01:24:20;101260.31;;;13.07;80.90
68230;BME280;55048;52.220;5.160;2022-10-26T01:32:36;101244.28;;;13.07;80.67
68230;BME280;55048;52.220;5.160;2022-10-26T01:35:22;101249.03;;;13.05;81.07
68230;BME280;55048;52.220;5.160;2022-10-26T01:37:55;101249.84;;;13.05;80.90
68230;BME280;55048;52.220;5.160;2022-10-26T01:40:32;101240.72;;;13.01;81.15
68230;BME280;55048;52.220;5.160;2022-10-26T01:43:02;101238.06;;;13.01;80.92
68230;BME280;55048;52.220;5.160;2022-10-26T01:45:31;101239.09;;;13.00;81.29
68230;BME280;55048;52.220;5.160;2022-10-26T01:47:58;101228.31;;;12.95;81.31
68230;BME280;55048;52.220;5.160;2022-10-26T01:50:26;101229.47;;;12.99;81.19
68230;BME280;55048;52.220;5.160;2022-10-26T01:52:53;101231.06;;;13.00;81.31
68230;BME280;55048;52.220;5.160;2022-10-26T02:00:58;101224.69;;;13.01;81.49
68230;BME280;55048;52.220;5.160;2022-10-26T02:04:10;101218.53;;;13.00;81.46
68230;BME280;55048;52.220;5.160;2022-10-26T02:07:01;101220.16;;;13.01;81.49
68230;BME280;55048;52.220;5.160;2022-10-26T02:09:53;101213.63;;;12.92;81.32
68230;BME280;55048;52.220;5.160;2022-10-26T02:15:22;101205.19;;;13.00;81.38
68230;BME280;55048;52.220;5.160;2022-10-26T02:17:59;101197.91;;;12.96;81.43
68230;BME280;55048;52.220;5.160;2022-10-26T02:20:28;101214.56;;;13.03;81.54
68230;BME280;55048;52.220;5.160;2022-10-26T02:22:55;101207.13;;;13.05;81.87
68230;BME280;55048;52.220;5.160;2022-10-26T02:25:26;101220.97;;;13.02;81.36
68230;BME280;55048;52.220;5.160;2022-10-26T02:27:56;101201.78;;;13.05;81.49
68230;BME280;55048;52.220;5.160;2022-10-26T02:30:24;101210.03;;;13.03;81.78
68230;BME280;55048;52.220;5.160;2022-10-26T02:32:52;101198.97;;;12.95;81.88
68230;BME280;55048;52.220;5.160;2022-10-26T02:35:23;101195.88;;;13.03;81.85
68230;BME280;55048;52.220;5.160;2022-10-26T02:37:51;101197.75;;;13.02;81.87
68230;BME280;55048;52.220;5.160;2022-10-26T02:40:21;101186.50;;;13.00;81.70
68230;BME280;55048;52.220;5.160;2022-10-26T02:42:51;101183.66;;;13.07;81.62
68230;BME280;55048;52.220;5.160;2022-10-26T02:45:21;101180.50;;;13.10;81.59
68230;BME280;55048;52.220;5.160;2022-10-26T02:47:49;101184.00;;;13.11;81.57
68230;BME280;55048;52.220;5.160;2022-10-26T02:50:15;101182.59;;;13.08;81.96
68230;BME280;55048;52.220;5.160;2022-10-26T02:53:04;101184.47;;;13.08;82.23
68230;BME280;55048;52.220;5.160;2022-10-26T02:55:36;101184.56;;;13.13;81.94
68230;BME280;55048;52.220;5.160;2022-10-26T02:58:12;101180.00;;;13.13;81.83
68230;BME280;55048;52.220;5.160;2022-10-26T03:00:41;101179.53;;;13.16;81.76
68230;BME280;55048;52.220;5.160;2022-10-26T03:03:07;101177.19;;;13.20;81.65
68230;BME280;55048;52.220;5.160;2022-10-26T03:05:33;101173.38;;;13.16;81.82
68230;BME280;55048;52.220;5.160;2022-10-26T03:08:01;101186.34;;;13.24;81.68
68230;BME280;55048;52.220;5.160;2022-10-26T03:10:26;101155.66;;;13.10;81.77
68230;BME280;55048;52.220;5.160;2022-10-26T03:12:52;101176.22;;;13.26;81.74
68230;BME280;55048;52.220;5.160;2022-10-26T03:15:17;101153.38;;;13.18;81.64
68230;BME280;55048;52.220;5.160;2022-10-26T03:17:43;101169.34;;;13.30;81.96
68230;BME280;55048;52.220;5.160;2022-10-26T03:20:09;101149.41;;;13.21;81.52
68230;BME280;55048;52.220;5.160;2022-10-26T03:22:34;101175.50;;;13.31;81.66
68230;BME280;55048;52.220;5.160;2022-10-26T03:25:00;101161.81;;;13.27;81.59
68230;BME280;55048;52.220;5.160;2022-10-26T03:27:25;101173.94;;;13.35;81.73
68230;BME280;55048;52.220;5.160;2022-10-26T03:29:51;101174.50;;;13.37;81.68
68230;BME280;55048;52.220;5.160;2022-10-26T03:32:17;101171.03;;;13.36;81.46
68230;BME280;55048;52.220;5.160;2022-10-26T03:34:43;101161.56;;;13.28;81.55
68230;BME280;55048;52.220;5.160;2022-10-26T03:37:08;101180.72;;;13.42;81.63
68230;BME280;55048;52.220;5.160;2022-10-26T03:39:33;101168.75;;;13.45;81.53
68230;BME280;55048;52.220;5.160;2022-10-26T03:41:59;101167.41;;;13.47;81.37
68230;BME280;55048;52.220;5.160;2022-10-26T03:44:24;101133.50;;;13.26;81.36
68230;BME280;55048;52.220;5.160;2022-10-26T03:46:50;101161.28;;;13.47;81.50
68230;BME280;55048;52.220;5.160;2022-10-26T03:49:15;101162.34;;;13.46;81.28
68230;BME280;55048;52.220;5.160;2022-10-26T03:51:41;101155.38;;;13.45;81.43
68230;BME280;55048;52.220;5.160;2022-10-26T03:54:06;101160.72;;;13.45;81.47
68230;BME280;55048;52.220;5.160;2022-10-26T03:56:32;101144.78;;;13.33;81.48
68230;BME280;55048;52.220;5.160;2022-10-26T03:58:57;101165.50;;;13.43;81.37
68230;BME280;55048;52.220;5.160;2022-10-26T04:01:23;101138.09;;;13.31;81.41
68230;BME280;55048;52.220;5.160;2022-10-26T04:03:48;101164.69;;;13.42;81.46
68230;BME280;55048;52.220;5.160;2022-10-26T04:06:14;101149.66;;;13.36;81.49
68230;BME280;55048;52.220;5.160;2022-10-26T04:08:39;101144.56;;;13.35;81.47
68230;BME280;55048;52.220;5.160;2022-10-26T04:11:05;101147.31;;;13.40;81.44
68230;BME280;55048;52.220;5.160;2022-10-26T04:13:30;101159.66;;;13.46;81.38
68230;BME280;55048;52.220;5.160;2022-10-26T04:15:56;101165.50;;;13.43;81.51
68230;BME280;55048;52.220;5.160;2022-10-26T04:18:22;101137.78;;;13.27;81.59
68230;BME280;55048;52.220;5.160;2022-10-26T04:20:47;101151.03;;;13.39;81.73
68230;BME280;55048;52.220;5.160;2022-10-26T04:23:14;101162.53;;;13.39;81.67
68230;BME280;55048;52.220;5.160;2022-10-26T04:25:41;101151.03;;;13.39;81.43
68230;BME280;55048;52.220;5.160;2022-10-26T04:28:07;101141.91;;;13.35;81.66
68230;BME280;55048;52.220;5.160;2022-10-26T04:30:33;101156.94;;;13.41;81.65
68230;BME280;55048;52.220;5.160;2022-10-26T04:32:59;101152.06;;;13.38;81.72
68230;BME280;55048;52.220;5.160;2022-10-26T04:35:25;101154.25;;;13.41;81.52
68230;BME280;55048;52.220;5.160;2022-10-26T04:37:58;101139.72;;;13.32;81.55
68230;BME280;55048;52.220;5.160;2022-10-26T04:40:25;101140.09;;;13.40;81.62
68230;BME280;55048;52.220;5.160;2022-10-26T04:42:51;101136.63;;;13.40;81.68
68230;BME280;55048;52.220;5.160;2022-10-26T04:45:16;101126.41;;;13.37;81.58
68230;BME280;55048;52.220;5.160;2022-10-26T04:47:42;101140.91;;;13.41;81.76
68230;BME280;55048;52.220;5.160;2022-10-26T04:50:09;101115.06;;;13.24;81.34
68230;BME280;55048;52.220;5.160;2022-10-26T04:52:35;101108.88;;;13.24;81.67
68230;BME280;55048;52.220;5.160;2022-10-26T04:55:01;101132.88;;;13.41;81.76
68230;BME280;55048;52.220;5.160;2022-10-26T04:57:33;101133.44;;;13.43;81.66
68230;BME280;55048;52.220;5.160;2022-10-26T05:00:00;101144.13;;;13.43;81.77
68230;BME280;55048;52.220;5.160;2022-10-26T05:02:27;101143.88;;;13.44;81.60
68230;BME280;55048;52.220;5.160;2022-10-26T05:04:52;101145.75;;;13.44;82.03
68230;BME280;55048;52.220;5.160;2022-10-26T05:07:18;101146.31;;;13.46;81.71
68230;BME280;55048;52.220;5.160;2022-10-26T05:09:43;101141.75;;;13.46;81.50
68230;BME280;55048;52.220;5.160;2022-10-26T05:12:08;101153.25;;;13.47;81.45
68230;BME280;55048;52.220;5.160;2022-10-26T05:14:34;101109.47;;;13.26;81.36
68230;BME280;55048;52.220;5.160;2022-10-26T05:16:59;101138.34;;;13.51;81.61
68230;BME280;55048;52.220;5.160;2022-10-26T05:19:25;101145.56;;;13.50;81.45
68230;BME280;55048;52.220;5.160;2022-10-26T05:21:50;101141.03;;;13.51;81.67
68230;BME280;55048;52.220;5.160;2022-10-26T05:24:18;101150.66;;;13.52;81.35
68230;BME280;55048;52.220;5.160;2022-10-26T05:26:43;101139.16;;;13.51;81.47
68230;BME280;55048;52.220;5.160;2022-10-26T05:29:09;101142.63;;;13.52;81.39
68230;BME280;55048;52.220;5.160;2022-10-26T05:31:34;101132.78;;;13.52;81.54
68230;BME280;55048;52.220;5.160;2022-10-26T05:34:00;101148.28;;;13.56;81.26
68230;BME280;55048;52.220;5.160;2022-10-26T05:36:25;101122.84;;;13.48;81.29
68230;BME280;55048;52.220;5.160;2022-10-26T05:38:51;101134.19;;;13.60;81.09
68230;BME280;55048;52.220;5.160;2022-10-26T05:41:16;101137.44;;;13.62;81.42
68230;BME280;55048;52.220;5.160;2022-10-26T05:43:41;101143.81;;;13.61;81.19
68230;BME280;55048;52.220;5.160;2022-10-26T05:46:07;101141.72;;;13.63;81.37
68230;BME280;55048;52.220;5.160;2022-10-26T05:48:32;101136.91;;;13.65;80.98
68230;BME280;55048;52.220;5.160;2022-10-26T05:50:59;101093.06;;;13.39;81.21
68230;BME280;55048;52.220;5.160;2022-10-26T05:53:25;101151.09;;;13.66;81.21
68230;BME280;55048;52.220;5.160;2022-10-26T05:55:51;101072.56;;;13.23;81.09
68230;BME280;55048;52.220;5.160;2022-10-26T05:58:17;101119.72;;;13.56;81.13
68230;BME280;55048;52.220;5.160;2022-10-26T06:00:53;101148.19;;;13.67;80.94
68230;BME280;55048;52.220;5.160;2022-10-26T06:06:01;101149.31;;;13.71;80.95
68230;BME280;55048;52.220;5.160;2022-10-26T06:08:27;101140.91;;;13.63;81.10
68230;BME280;55048;52.220;5.160;2022-10-26T06:10:54;101155.94;;;13.69;81.16
68230;BME280;55048;52.220;5.160;2022-10-26T06:13:21;101158.63;;;13.69;81.24
68230;BME280;55048;52.220;5.160;2022-10-26T06:15:54;101165.56;;;13.70;81.19
68230;BME280;55048;52.220;5.160;2022-10-26T06:18:38;101164.53;;;13.71;81.02
68230;BME280;55048;52.220;5.160;2022-10-26T06:29:34;101158.69;;;13.74;80.66
68230;BME280;55048;52.220;5.160;2022-10-26T06:32:01;101142.03;;;13.67;80.67
68230;BME280;55048;52.220;5.160;2022-10-26T06:57:08;101151.28;;;13.81;80.56
68230;BME280;55048;52.220;5.160;2022-10-26T06:59:39;101156.06;;;13.79;80.56
68230;BME280;55048;52.220;5.160;2022-10-26T07:02:08;101136.38;;;13.63;80.76
68230;BME280;55048;52.220;5.160;2022-10-26T07:04:35;101107.66;;;13.53;80.60
68230;BME280;55048;52.220;5.160;2022-10-26T07:07:01;101092.31;;;13.44;80.42
68230;BME280;55048;52.220;5.160;2022-10-26T07:09:26;101138.03;;;13.69;80.70
68230;BME280;55048;52.220;5.160;2022-10-26T07:11:52;101140.09;;;13.62;80.94
68230;BME280;55048;52.220;5.160;2022-10-26T07:14:17;101128.63;;;13.62;80.67
68230;BME280;55048;52.220;5.160;2022-10-26T07:16:42;101106.06;;;13.52;80.57
68230;BME280;55048;52.220;5.160;2022-10-26T07:19:08;101120.66;;;13.67;80.36
68230;BME280;55048;52.220;5.160;2022-10-26T07:21:33;101149.47;;;13.87;80.37
68230;BME280;55048;52.220;5.160;2022-10-26T07:23:58;101144.38;;;13.85;80.22
68230;BME280;55048;52.220;5.160;2022-10-26T07:26:24;101107.72;;;13.59;80.48
68230;BME280;55048;52.220;5.160;2022-10-26T07:28:50;101118.47;;;13.64;80.47
68230;BME280;55048;52.220;5.160;2022-10-26T07:31:15;101159.91;;;13.88;80.51
68230;BME280;55048;52.220;5.160;2022-10-26T07:33:41;101180.78;;;14.13;80.26
68230;BME280;55048;52.220;5.160;2022-10-26T07:36:07;101157.16;;;14.05;80.05
68230;BME280;55048;52.220;5.160;2022-10-26T07:38:35;101167.09;;;14.10;79.90
68230;BME280;55048;52.220;5.160;2022-10-26T07:41:01;101168.88;;;14.26;79.83
68230;BME280;55048;52.220;5.160;2022-10-26T07:43:26;101170.78;;;14.30;79.76
68230;BME280;55048;52.220;5.160;2022-10-26T07:45:52;101152.56;;;14.27;79.60
68230;BME280;55048;52.220;5.160;2022-10-26T07:48:17;101153.44;;;14.33;79.43
68230;BME280;55048;52.220;5.160;2022-10-26T07:50:43;101174.50;;;14.51;79.19
68230;BME280;55048;52.220;5.160;2022-10-26T07:53:08;101136.25;;;14.29;79.12
68230;BME280;55048;52.220;5.160;2022-10-26T07:55:33;101187.94;;;14.57;78.97
68230;BME280;55048;52.220;5.160;2022-10-26T07:57:59;101156.16;;;14.38;78.88
68230;BME280;55048;52.220;5.160;2022-10-26T08:00:24;101191.50;;;14.67;78.79
68230;BME280;55048;52.220;5.160;2022-10-26T08:02:50;101190.69;;;14.67;78.52
68230;BME280;55048;52.220;5.160;2022-10-26T08:05:16;101212.34;;;14.92;78.69
68230;BME280;55048;52.220;5.160;2022-10-26T08:07:42;101209.69;;;14.97;78.45
68230;BME280;55048;52.220;5.160;2022-10-26T08:10:09;101197.31;;;14.91;78.21
68230;BME280;55048;52.220;5.160;2022-10-26T08:12:34;101207.84;;;15.03;78.22
68230;BME280;55048;52.220;5.160;2022-10-26T08:15:00;101180.66;;;14.84;78.05
68230;BME280;55048;52.220;5.160;2022-10-26T08:17:25;101221.28;;;15.08;78.32
68230;BME280;55048;52.220;5.160;2022-10-26T08:19:50;101194.75;;;15.07;77.92
68230;BME280;55048;52.220;5.160;2022-10-26T08:22:15;101208.22;;;15.17;77.63
68230;BME280;55048;52.220;5.160;2022-10-26T08:24:41;101213.03;;;15.20;77.63
68230;BME280;55048;52.220;5.160;2022-10-26T08:27:08;101192.91;;;15.12;77.26
68230;BME280;55048;52.220;5.160;2022-10-26T08:29:33;101241.91;;;15.45;77.65
68230;BME280;55048;52.220;5.160;2022-10-26T08:31:59;101229.56;;;15.44;77.32
68230;BME280;55048;52.220;5.160;2022-10-26T08:34:24;101230.91;;;15.46;77.54
68230;BME280;55048;52.220;5.160;2022-10-26T08:36:49;101234.19;;;15.53;77.05
68230;BME280;55048;52.220;5.160;2022-10-26T08:39:15;101257.34;;;15.70;77.10
68230;BME280;55048;52.220;5.160;2022-10-26T08:41:43;101256.28;;;15.71;76.73
68230;BME280;55048;52.220;5.160;2022-10-26T08:44:24;101258.16;;;15.75;76.80
68230;BME280;55048;52.220;5.160;2022-10-26T08:47:00;101247.69;;;15.69;76.92
68230;BME280;55048;52.220;5.160;2022-10-26T08:49:31;101228.13;;;15.68;76.85
68230;BME280;55048;52.220;5.160;2022-10-26T08:52:02;101187.22;;;15.46;77.08
68230;BME280;55048;52.220;5.160;2022-10-26T08:54:37;101196.38;;;15.55;76.91
68230;BME280;55048;52.220;5.160;2022-10-26T08:59:58;101243.22;;;15.90;76.94
68230;BME280;55048;52.220;5.160;2022-10-26T09:02:24;101227.97;;;15.90;76.92
68230;BME280;55048;52.220;5.160;2022-10-26T09:04:51;101215.88;;;15.93;76.95
68230;BME280;55048;52.220;5.160;2022-10-26T09:08:11;101239.03;;;16.09;76.83
68230;BME280;55048;52.220;5.160;2022-10-26T09:10:47;101209.44;;;15.94;76.71
68230;BME280;55048;52.220;5.160;2022-10-26T09:16:25;101210.34;;;16.25;76.38
68230;BME280;55048;52.220;5.160;2022-10-26T09:21:59;101249.59;;;16.51;76.27
68230;BME280;55048;52.220;5.160;2022-10-26T09:24:31;101243.16;;;16.68;75.83
68230;BME280;55048;52.220;5.160;2022-10-26T09:27:23;101244.00;;;16.73;75.88
68230;BME280;55048;52.220;5.160;2022-10-26T09:29:50;101224.66;;;16.61;76.05
68230;BME280;55048;52.220;5.160;2022-10-26T09:32:24;101209.59;;;16.55;75.90
68230;BME280;55048;52.220;5.160;2022-10-26T09:35:02;101266.34;;;16.99;75.82
68230;BME280;55048;52.220;5.160;2022-10-26T09:37:35;101270.91;;;17.09;75.68
68230;BME280;55048;52.220;5.160;2022-10-26T09:40:25;101279.22;;;17.18;75.68
68230;BME280;55048;52.220;5.160;2022-10-26T09:42:59;101247.00;;;17.07;75.30
68230;BME280;55048;52.220;5.160;2022-10-26T09:45:30;101274.63;;;17.33;75.10
68230;BME280;55048;52.220;5.160;2022-10-26T09:48:05;101261.19;;;17.28;75.46
68230;BME280;55048;52.220;5.160;2022-10-26T09:50:35;101273.31;;;17.36;75.12
68230;BME280;55048;52.220;5.160;2022-10-26T09:53:02;101277.06;;;17.45;75.00
68230;BME280;55048;52.220;5.160;2022-10-26T09:55:30;101263.88;;;17.33;74.66
68230;BME280;55048;52.220;5.160;2022-10-26T09:58:00;101269.81;;;17.36;74.90
68230;BME280;55048;52.220;5.160;2022-10-26T10:00:28;101307.16;;;17.68;74.86
68230;BME280;55048;52.220;5.160;2022-10-26T10:02:55;101291.00;;;17.57;74.44
68230;BME280;55048;52.220;5.160;2022-10-26T10:05:32;101245.88;;;17.24;74.55
68230;BME280;55048;52.220;5.160;2022-10-26T10:08:21;101296.94;;;17.59;74.80
68230;BME280;55048;52.220;5.160;2022-10-26T10:11:00;101307.13;;;17.83;74.33
68230;BME280;55048;52.220;5.160;2022-10-26T10:13:41;101257.13;;;17.51;73.98
68230;BME280;55048;52.220;5.160;2022-10-26T10:18:36;101296.63;;;17.76;74.33
68230;BME280;55048;52.220;5.160;2022-10-26T10:21:03;101309.81;;;17.88;74.23
68230;BME280;55048;52.220;5.160;2022-10-26T10:23:32;101309.53;;;17.84;74.19
68230;BME280;55048;52.220;5.160;2022-10-26T10:26:07;101326.72;;;17.99;74.59
68230;BME280;55048;52.220;5.160;2022-10-26T10:28:35;101319.22;;;17.91;74.37
68230;BME280;55048;52.220;5.160;2022-10-26T10:31:17;101318.16;;;17.87;74.00
68230;BME280;55048;52.220;5.160;2022-10-26T10:33:42;101300.69;;;17.79;74.69
68230;BME280;55048;52.220;5.160;2022-10-26T10:36:14;101315.16;;;17.93;74.57
68230;BME280;55048;52.220;5.160;2022-10-26T10:38:44;101350.09;;;18.08;74.51
68230;BME280;55048;52.220;5.160;2022-10-26T10:43:50;101347.16;;;18.00;74.91
68230;BME280;55048;52.220;5.160;2022-10-26T10:46:20;101341.78;;;18.00;75.09
68230;BME280;55048;52.220;5.160;2022-10-26T10:48:52;101359.53;;;18.06;75.15
68230;BME280;55048;52.220;5.160;2022-10-26T10:51:21;101349.84;;;18.00;75.52
68230;BME280;55048;52.220;5.160;2022-10-26T10:53:49;101387.50;;;18.20;75.48
68230;BME280;55048;52.220;5.160;2022-10-26T10:56:39;101394.22;;;18.13;76.44
68230;BME280;55048;52.220;5.160;2022-10-26T11:02:11;101395.31;;;18.12;76.24
68230;BME280;55048;52.220;5.160;2022-10-26T11:05:01;101313.91;;;17.40;76.26
68230;BME280;55048;52.220;5.160;2022-10-26T11:07:37;101377.59;;;17.95;76.70
68230;BME280;55048;52.220;5.160;2022-10-26T11:10:07;101366.84;;;17.80;76.37
68230;BME280;55048;52.220;5.160;2022-10-26T11:12:45;101346.16;;;17.60;77.00
68230;BME280;55048;52.220;5.160;2022-10-26T11:15:15;101358.78;;;17.70;77.40
68230;BME280;55048;52.220;5.160;2022-10-26T11:18:05;101416.59;;;18.03;77.42
68230;BME280;55048;52.220;5.160;2022-10-26T11:20:38;101408.81;;;17.96;77.04
68230;BME280;55048;52.220;5.160;2022-10-26T11:23:36;101353.91;;;17.67;77.57
68230;BME280;55048;52.220;5.160;2022-10-26T11:26:14;101412.81;;;18.04;77.51
68230;BME280;55048;52.220;5.160;2022-10-26T11:28:49;101422.53;;;18.05;77.53
68230;BME280;55048;52.220;5.160;2022-10-26T11:31:22;101423.06;;;17.97;77.56
68230;BME280;55048;52.220;5.160;2022-10-26T11:34:18;101425.22;;;18.05;77.31
68230;BME280;55048;52.220;5.160;2022-10-26T11:36:51;101392.41;;;17.93;77.35
68230;BME280;55048;52.220;5.160;2022-10-26T11:39:51;101368.72;;;17.84;76.95
68230;BME280;55048;52.220;5.160;2022-10-26T11:44:52;101436.44;;;18.43;76.40
68230;BME280;55048;52.220;5.160;2022-10-26T11:47:32;101425.94;;;18.36;76.25
68230;BME280;55048;52.220;5.160;2022-10-26T11:50:14;101406.31;;;18.30;75.93
68230;BME280;55048;52.220;5.160;2022-10-26T11:52:45;101431.56;;;18.50;75.31
68230;BME280;55048;52.220;5.160;2022-10-26T11:55:13;101441.50;;;18.54;75.38
68230;BME280;55048;52.220;5.160;2022-10-26T11:57:39;101412.75;;;18.34;75.79
68230;BME280;55048;52.220;5.160;2022-10-26T12:00:16;101444.47;;;18.58;75.53
68230;BME280;55048;52.220;5.160;2022-10-26T12:02:48;101450.63;;;18.74;75.39
68230;BME280;55048;52.220;5.160;2022-10-26T12:07:43;101386.06;;;18.43;75.21
68230;BME280;55048;52.220;5.160;2022-10-26T12:10:29;101449.25;;;18.81;74.83
68230;BME280;55048;52.220;5.160;2022-10-26T12:13:39;101301.44;;;17.95;75.32
68230;BME280;55048;52.220;5.160;2022-10-26T12:19:23;101465.06;;;19.03;75.14
68230;BME280;55048;52.220;5.160;2022-10-26T12:21:50;101276.97;;;17.91;74.90
68230;BME280;55048;52.220;5.160;2022-10-26T12:26:53;101431.50;;;19.20;74.83
68230;BME280;55048;52.220;5.160;2022-10-26T12:31:52;101280.34;;;18.17;73.85
68230;BME280;55048;52.220;5.160;2022-10-26T12:34:23;101219.97;;;17.69;73.54
68230;BME280;55048;52.220;5.160;2022-10-26T12:52:55;101460.09;;;19.16;73.66
68230;BME280;55048;52.220;5.160;2022-10-26T13:03:33;101454.31;;;18.93;73.76
68230;BME280;55048;52.220;5.160;2022-10-26T13:08:47;101431.44;;;18.85;73.92
68230;BME280;55048;52.220;5.160;2022-10-26T13:11:18;101475.75;;;19.19;74.38
68230;BME280;55048;52.220;5.160;2022-10-26T13:13:55;101420.94;;;18.79;74.01
68230;BME280;55048;52.220;5.160;2022-10-26T13:16:23;101430.59;;;18.95;73.95
68230;BME280;55048;52.220;5.160;2022-10-26T13:18:50;101491.84;;;19.29;73.87
68230;BME280;55048;52.220;5.160;2022-10-26T13:21:16;101471.41;;;19.23;73.62
68230;BME280;55048;52.220;5.160;2022-10-26T13:23:47;101492.66;;;19.29;72.95
68230;BME280;55048;52.220;5.160;2022-10-26T13:26:26;101451.78;;;19.07;73.11
68230;BME280;55048;52.220;5.160;2022-10-26T13:28:56;101491.81;;;19.34;72.84
68230;BME280;55048;52.220;5.160;2022-10-26T13:34:18;101501.47;;;19.45;73.11
68230;BME280;55048;52.220;5.160;2022-10-26T13:36:46;101496.31;;;19.49;73.19
68230;BME280;55048;52.220;5.160;2022-10-26T13:41:42;101401.00;;;18.85;73.29
68230;BME280;55048;52.220;5.160;2022-10-26T13:44:22;101476.00;;;19.22;73.39
68230;BME280;55048;52.220;5.160;2022-10-26T13:46:53;101377.63;;;18.60;73.01
68230;BME280;55048;52.220;5.160;2022-10-26T13:49:25;101500.41;;;19.46;73.33
68230;BME280;55048;52.220;5.160;2022-10-26T13:51:52;101444.19;;;19.19;72.90
68230;BME280;55048;52.220;5.160;2022-10-26T13:54:33;101388.91;;;18.77;73.49
68230;BME280;55048;52.220;5.160;2022-10-26T13:57:28;101495.03;;;19.41;73.46
68230;BME280;55048;52.220;5.160;2022-10-26T13:59:56;101494.03;;;19.27;72.98
68230;BME280;55048;52.220;5.160;2022-10-26T14:02:24;101468.75;;;19.18;73.17
68230;BME280;55048;52.220;5.160;2022-10-26T14:04:53;101512.28;;;19.45;73.06
68230;BME280;55048;52.220;5.160;2022-10-26T14:07:34;101504.81;;;19.32;72.86
68230;BME280;55048;52.220;5.160;2022-10-26T14:10:01;101476.00;;;19.22;72.10
68230;BME280;55048;52.220;5.160;2022-10-26T14:12:26;101525.16;;;19.53;72.02
68230;BME280;55048;52.220;5.160;2022-10-26T14:15:02;101533.56;;;19.47;71.66
68230;BME280;55048;52.220;5.160;2022-10-26T14:17:29;101493.28;;;19.11;71.17
68230;BME280;55048;52.220;5.160;2022-10-26T14:19:55;101523.38;;;19.33;71.03
68230;BME280;55048;52.220;5.160;2022-10-26T14:22:24;101533.84;;;19.45;71.06
68230;BME280;55048;52.220;5.160;2022-10-26T14:24:59;101450.31;;;18.85;71.17
68230;BME280;55048;52.220;5.160;2022-10-26T14:27:36;101559.97;;;19.55;70.89
68230;BME280;55048;52.220;5.160;2022-10-26T14:30:26;101504.59;;;19.18;70.48
68230;BME280;55048;52.220;5.160;2022-10-26T14:32:52;101566.97;;;19.61;70.33
68230;BME280;55048;52.220;5.160;2022-10-26T14:35:22;101499.50;;;19.17;70.70
68230;BME280;55048;52.220;5.160;2022-10-26T14:37:56;101575.56;;;19.58;70.46
68230;BME280;55048;52.220;5.160;2022-10-26T14:40:29;101548.72;;;19.37;70.45
68230;BME280;55048;52.220;5.160;2022-10-26T14:42:57;101519.19;;;19.17;70.52
68230;BME280;55048;52.220;5.160;2022-10-26T14:47:51;101587.00;;;19.45;70.78
68230;BME280;55048;52.220;5.160;2022-10-26T14:50:19;101590.25;;;19.42;70.73
68230;BME280;55048;52.220;5.160;2022-10-26T14:52:50;101587.84;;;19.40;71.12
68230;BME280;55048;52.220;5.160;2022-10-26T14:55:17;101522.75;;;18.97;71.00
68230;BME280;55048;52.220;5.160;2022-10-26T14:57:45;101590.81;;;19.33;70.76
68230;BME280;55048;52.220;5.160;2022-10-26T15:02:37;101580.88;;;19.24;70.84
68230;BME280;55048;52.220;5.160;2022-10-26T15:07:49;101592.44;;;19.29;71.29
68230;BME280;55048;52.220;5.160;2022-10-26T15:13:24;101586.25;;;19.29;71.35
68230;BME280;55048;52.220;5.160;2022-10-26T15:15:53;101548.88;;;19.02;71.59